地図

経路データ

SID SEASON NUMBER BASIN SUBBASIN NAME ISO_TIME NATURE LAT LON WMO_WIND WMO_PRES WMO_AGENCY TRACK_TYPE DIST2LAND LANDFALL IFLAG USA_AGENCY USA_ATCF_ID USA_LAT USA_LON USA_RECORD USA_STATUS USA_WIND USA_PRES USA_SSHS USA_R34_NE USA_R34_SE USA_R34_SW USA_R34_NW USA_R50_NE USA_R50_SE USA_R50_SW USA_R50_NW USA_R64_NE USA_R64_SE USA_R64_SW USA_R64_NW USA_POCI USA_ROCI USA_RMW USA_EYE TOKYO_LAT TOKYO_LON TOKYO_GRADE TOKYO_WIND TOKYO_PRES TOKYO_R50_DIR TOKYO_R50_LONG TOKYO_R50_SHORT TOKYO_R30_DIR TOKYO_R30_LONG TOKYO_R30_SHORT TOKYO_LAND CMA_LAT CMA_LON CMA_CAT CMA_WIND CMA_PRES HKO_LAT HKO_LON HKO_CAT HKO_WIND HKO_PRES NEWDELHI_LAT NEWDELHI_LON NEWDELHI_GRADE NEWDELHI_WIND NEWDELHI_PRES NEWDELHI_CI NEWDELHI_DP NEWDELHI_POCI REUNION_LAT REUNION_LON REUNION_TYPE REUNION_WIND REUNION_PRES REUNION_TNUM REUNION_CI REUNION_RMW REUNION_R34_NE REUNION_R34_SE REUNION_R34_SW REUNION_R34_NW REUNION_R50_NE REUNION_R50_SE REUNION_R50_SW REUNION_R50_NW REUNION_R64_NE REUNION_R64_SE REUNION_R64_SW REUNION_R64_NW BOM_LAT BOM_LON BOM_TYPE BOM_WIND BOM_PRES BOM_TNUM BOM_CI BOM_RMW BOM_R34_NE BOM_R34_SE BOM_R34_SW BOM_R34_NW BOM_R50_NE BOM_R50_SE BOM_R50_SW BOM_R50_NW BOM_R64_NE BOM_R64_SE BOM_R64_SW BOM_R64_NW BOM_ROCI BOM_POCI BOM_EYE BOM_POS_METHOD BOM_PRES_METHOD NADI_LAT NADI_LON NADI_CAT NADI_WIND NADI_PRES WELLINGTON_LAT WELLINGTON_LON WELLINGTON_WIND WELLINGTON_PRES DS824_LAT DS824_LON DS824_STAGE DS824_WIND DS824_PRES TD9636_LAT TD9636_LON TD9636_STAGE TD9636_WIND TD9636_PRES TD9635_LAT TD9635_LON TD9635_WIND TD9635_PRES TD9635_ROCI NEUMANN_LAT NEUMANN_LON NEUMANN_CLASS NEUMANN_WIND NEUMANN_PRES MLC_LAT MLC_LON MLC_CLASS MLC_WIND MLC_PRES USA_GUST BOM_GUST BOM_GUST_PER REUNION_GUST REUNION_GUST_PER USA_SEAHGT USA_SEARAD_NE USA_SEARAD_SE USA_SEARAD_SW USA_SEARAD_NW STORM_SPEED STORM_DIR
1995271N19273 1995 73 NA CS OPAL 1995-09-27 18:00:00 TS 19.1000 -87.3000 25 1004 hurdat_atl main 23 10 O_____________ hurdat_atl AL171995 19.1000 -87.3000 TD 25 1004 -1 4 339
1995271N19273 1995 73 NA CS OPAL 1995-09-27 21:00:00 TS 19.2775 -87.3775 main 15 10 P_____________ AL171995 19.2775 -87.3775 TD 25 1004 -1 4 328
1995271N19273 1995 73 NA CS OPAL 1995-09-28 00:00:00 TS 19.4000 -87.5000 25 1004 hurdat_atl main 10 0 O_____________ hurdat_atl AL171995 19.4000 -87.5000 TD 25 1004 -1 3 297
1995271N19273 1995 73 NA NA OPAL 1995-09-28 03:00:00 TS 19.4300 -87.6925 main 0 0 P_____________ AL171995 19.4300 -87.6925 TD 25 1004 -1 4 270
1995271N19273 1995 73 NA NA OPAL 1995-09-28 06:00:00 TS 19.4000 -87.9000 25 1004 hurdat_atl main 0 0 O_____________ hurdat_atl AL171995 19.4000 -87.9000 TD 25 1004 -1 4 257
1995271N19273 1995 73 NA NA OPAL 1995-09-28 09:00:00 TS 19.3500 -88.0650 main 0 0 P_____________ AL171995 19.3500 -88.0650 TD 25 1003 -1 3 250
1995271N19273 1995 73 NA NA OPAL 1995-09-28 12:00:00 TS 19.3000 -88.2000 25 1003 hurdat_atl main 0 0 O_____________ hurdat_atl AL171995 19.3000 -88.2000 TD 25 1003 -1 3 255
1995271N19273 1995 73 NA NA OPAL 1995-09-28 15:00:00 TS 19.2850 -88.3225 main 0 0 P_____________ AL171995 19.2850 -88.3225 TD 25 1003 -1 2 270
1995271N19273 1995 73 NA NA OPAL 1995-09-28 18:00:00 TS 19.3000 -88.4000 25 1003 hurdat_atl main 0 0 O_____________ hurdat_atl AL171995 19.3000 -88.4000 TD 25 1003 -1 1 303
1995271N19273 1995 73 NA NA OPAL 1995-09-28 21:00:00 TS 19.3425 -88.4150 main 0 0 P_____________ AL171995 19.3425 -88.4150 TD 25 1003 -1 1 0
1995271N19273 1995 73 NA NA OPAL 1995-09-29 00:00:00 TS 19.4000 -88.4000 25 1003 hurdat_atl main 0 0 O_____________ hurdat_atl AL171995 19.4000 -88.4000 TD 25 1003 -1 1 0
1995271N19273 1995 73 NA NA OPAL 1995-09-29 03:00:00 TS 19.4500 -88.4075 main 0 0 P_____________ AL171995 19.4500 -88.4075 TD 25 1003 -1 1 0
1995271N19273 1995 73 NA NA OPAL 1995-09-29 06:00:00 TS 19.5000 -88.4000 25 1003 hurdat_atl main 0 0 O_____________ hurdat_atl AL171995 19.5000 -88.4000 TD 25 1003 -1 1 17
1995271N19273 1995 73 NA NA OPAL 1995-09-29 09:00:00 TS 19.5425 -88.3575 main 0 0 P_____________ AL171995 19.5425 -88.3575 TD 25 1003 -1 1 43
1995271N19273 1995 73 NA NA OPAL 1995-09-29 12:00:00 TS 19.6000 -88.3000 25 1003 hurdat_atl main 0 0 O_____________ hurdat_atl AL171995 19.6000 -88.3000 TD 25 1003 -1 2 36
1995271N19273 1995 73 NA NA OPAL 1995-09-29 15:00:00 TS 19.6850 -88.2425 main 0 0 P_____________ AL171995 19.6850 -88.2425 TD 27 1003 -1 2 27
1995271N19273 1995 73 NA NA OPAL 1995-09-29 18:00:00 TS 19.8000 -88.2000 30 1003 hurdat_atl main 0 0 O_____________ hurdat_atl AL171995 19.8000 -88.2000 TD 30 1003 -1 3 14
1995271N19273 1995 73 NA NA OPAL 1995-09-29 21:00:00 TS 19.9275 -88.1850 main 0 0 P_____________ AL171995 19.9275 -88.1850 TD 30 1002 -1 3 0
1995271N19273 1995 73 NA NA OPAL 1995-09-30 00:00:00 TS 20.1000 -88.2000 30 1002 hurdat_atl main 0 0 O_____________ hurdat_atl AL171995 20.1000 -88.2000 TD 30 1002 -1 4 355
1995271N19273 1995 73 NA NA OPAL 1995-09-30 03:00:00 TS 20.3350 -88.2350 main 0 0 P_____________ AL171995 20.3350 -88.2350 TD 30 1002 -1 5 349
1995271N19273 1995 73 NA NA OPAL 1995-09-30 06:00:00 TS 20.6000 -88.3000 30 1002 hurdat_atl main 0 0 O_____________ hurdat_atl AL171995 20.6000 -88.3000 TD 30 1002 -1 5 348
1995271N19273 1995 73 NA NA OPAL 1995-09-30 09:00:00 TS 20.8649 -88.3626 main 0 0 P_____________ AL171995 20.8649 -88.3626 TD 32 1001 -1 5 340
1995271N19273 1995 73 NA NA OPAL 1995-09-30 12:00:00 TS 21.1000 -88.5000 35 1001 hurdat_atl main 0 0 O_____________ hurdat_atl AL171995 21.1000 -88.5000 TS 35 1001 0 6 320
1995271N19273 1995 73 NA NA OPAL 1995-09-30 15:00:00 TS 21.2950 -88.7548 main 0 0 P_____________ AL171995 21.2950 -88.7548 TS 37 1000 0 6 298
1995271N19273 1995 73 NA GM OPAL 1995-09-30 18:00:00 TS 21.4000 -89.1000 40 1000 hurdat_atl main 11 11 O_____________ hurdat_atl AL171995 21.4000 -89.1000 TS 40 1000 0 7 278
1995271N19273 1995 73 NA GM OPAL 1995-09-30 21:00:00 TS 21.3875 -89.4851 main 22 11 P_____________ AL171995 21.3875 -89.4851 TS 42 997 0 8 262
1995271N19273 1995 73 NA GM OPAL 1995-10-01 00:00:00 TS 21.3000 -89.9000 45 994 hurdat_atl main 11 11 O_____________ hurdat_atl AL171995 21.3000 -89.9000 TS 45 994 0 8 257
1995271N19273 1995 73 NA GM OPAL 1995-10-01 03:00:00 TS 21.2075 -90.3226 main 11 11 P_____________ AL171995 21.2075 -90.3226 TS 45 990 0 8 255
1995271N19273 1995 73 NA GM OPAL 1995-10-01 06:00:00 TS 21.1000 -90.7000 45 987 hurdat_atl main 41 41 O_____________ hurdat_atl AL171995 21.1000 -90.7000 TS 45 987 0 7 251
1995271N19273 1995 73 NA GM OPAL 1995-10-01 09:00:00 TS 20.9924 -90.9800 main 66 66 P_____________ AL171995 20.9924 -90.9800 TS 45 986 0 5 247
1995271N19273 1995 73 NA GM OPAL 1995-10-01 12:00:00 TS 20.9000 -91.2000 45 986 hurdat_atl main 83 83 O_____________ hurdat_atl AL171995 20.9000 -91.2000 TS 45 986 0 4 250
1995271N19273 1995 73 NA GM OPAL 1995-10-01 15:00:00 TS 20.8425 -91.4150 main 99 99 P_____________ AL171995 20.8425 -91.4150 TS 47 985 0 4 255
1995271N19273 1995 73 NA GM OPAL 1995-10-01 18:00:00 TS 20.8000 -91.6000 50 985 hurdat_atl main 119 119 O_____________ hurdat_atl AL171995 20.8000 -91.6000 TS 50 985 0 3 252
1995271N19273 1995 73 NA GM OPAL 1995-10-01 21:00:00 TS 20.7350 -91.7650 main 137 137 P_____________ AL171995 20.7350 -91.7650 TS 52 984 0 3 250
1995271N19273 1995 73 NA GM OPAL 1995-10-02 00:00:00 TS 20.7000 -91.9000 55 984 hurdat_atl main 147 147 O_____________ hurdat_atl AL171995 20.7000 -91.9000 TS 55 984 0 2 268
1995271N19273 1995 73 NA GM OPAL 1995-10-02 03:00:00 TS 20.7275 -92.0075 main 157 157 P_____________ AL171995 20.7275 -92.0075 TS 57 982 0 2 299
1995271N19273 1995 73 NA GM OPAL 1995-10-02 06:00:00 TS 20.8000 -92.1000 60 980 hurdat_atl main 169 169 O_____________ hurdat_atl AL171995 20.8000 -92.1000 TS 60 980 0 3 311
1995271N19273 1995 73 NA GM OPAL 1995-10-02 09:00:00 TS 20.8925 -92.2150 main 182 182 P_____________ AL171995 20.8925 -92.2150 TS 62 976 0 3 317
1995271N19273 1995 73 NA GM OPAL 1995-10-02 12:00:00 TS 21.0000 -92.3000 65 973 hurdat_atl main 195 195 O_____________ hurdat_atl AL171995 21.0000 -92.3000 HU 65 973 1 2 332
1995271N19273 1995 73 NA GM OPAL 1995-10-02 15:00:00 TS 21.0775 -92.3225 main 198 198 P_____________ AL171995 21.0775 -92.3225 HU 65 972 1 2 8
1995271N19273 1995 73 NA GM OPAL 1995-10-02 18:00:00 TS 21.2000 -92.3000 65 972 hurdat_atl main 202 202 O_____________ hurdat_atl AL171995 21.2000 -92.3000 HU 65 972 1 4 8
1995271N19273 1995 73 NA GM OPAL 1995-10-02 21:00:00 TS 21.4275 -92.2650 main 208 201 P_____________ AL171995 21.4275 -92.2650 HU 67 971 1 5 11
1995271N19273 1995 73 NA GM OPAL 1995-10-03 00:00:00 TS 21.7000 -92.2000 70 970 hurdat_atl main 207 206 O_____________ hurdat_atl AL171995 21.7000 -92.2000 HU 70 970 1 5 14
1995271N19273 1995 73 NA GM OPAL 1995-10-03 03:00:00 TS 21.9425 -92.1224 main 206 206 P_____________ AL171995 21.9425 -92.1224 HU 72 969 1 5 20
1995271N19273 1995 73 NA GM OPAL 1995-10-03 06:00:00 TS 22.2000 -92.0000 75 969 hurdat_atl main 214 212 O_____________ hurdat_atl AL171995 22.2000 -92.0000 HU 75 969 1 6 27
1995271N19273 1995 73 NA GM OPAL 1995-10-03 09:00:00 TS 22.4850 -91.8299 main 220 220 P_____________ AL171995 22.4850 -91.8299 HU 77 968 1 7 32
1995271N19273 1995 73 NA GM OPAL 1995-10-03 12:00:00 TS 22.8000 -91.6000 80 968 hurdat_atl main 232 232 O_____________ hurdat_atl AL171995 22.8000 -91.6000 HU 80 968 1 8 36
1995271N19273 1995 73 NA GM OPAL 1995-10-03 15:00:00 TS 23.1199 -91.3371 main 246 246 P_____________ AL171995 23.1199 -91.3371 HU 82 966 1 9 38
1995271N19273 1995 73 NA GM OPAL 1995-10-03 18:00:00 TS 23.5000 -91.0000 85 965 hurdat_atl main 277 277 O_____________ hurdat_atl AL171995 23.5000 -91.0000 HU 85 965 2 11 41
1995271N19273 1995 73 NA GM OPAL 1995-10-03 21:00:00 TS 23.9477 -90.5575 main 310 310 P_____________ AL171995 23.9477 -90.5575 HU 92 959 2 13 39
1995271N19273 1995 73 NA GM OPAL 1995-10-04 00:00:00 TS 24.5000 -90.1000 100 953 hurdat_atl main 366 366 O_____________ hurdat_atl AL171995 24.5000 -90.1000 HU 100 953 3 15 30
1995271N19273 1995 73 NA GM OPAL 1995-10-04 03:00:00 TS 25.2033 -89.7538 main 429 347 P_____________ AL171995 25.2033 -89.7538 HU 105 944 3 15 24
1995271N19273 1995 73 NA GM OPAL 1995-10-04 06:00:00 TS 25.9000 -89.4000 110 935 hurdat_atl main 347 301 O_____________ hurdat_atl AL171995 25.9000 -89.4000 HU 110 935 3 14 32
1995271N19273 1995 73 NA GM OPAL 1995-10-04 09:00:00 TS 26.3609 -88.9532 main 290 269 P_____________ AL171995 26.3609 -88.9532 HU 124 920 4 13 38
1995271N19273 1995 73 NA GM OPAL 1995-10-04 10:00:00 TS 26.6000 -88.8000 130 916 hurdat_atl main 269 209 O_____________ hurdat_atl AL171995 26.6000 -88.8000 I HU 130 916 4 21 23
1995271N19273 1995 73 NA GM OPAL 1995-10-04 12:00:00 TS 27.3000 -88.5000 130 919 hurdat_atl main 198 140 O_____________ hurdat_atl AL171995 27.3000 -88.5000 HU 130 919 4 20 22
1995271N19273 1995 73 NA GM OPAL 1995-10-04 15:00:00 TS 28.1744 -88.0957 main 132 115 P_____________ AL171995 28.1744 -88.0957 HU 120 928 4 18 23
1995271N19273 1995 73 NA GM OPAL 1995-10-04 18:00:00 TS 29.0000 -87.7000 110 938 hurdat_atl main 126 45 O_____________ hurdat_atl AL171995 29.0000 -87.7000 HU 110 938 3 19 22
1995271N19273 1995 73 NA GM OPAL 1995-10-04 21:00:00 TS 29.9605 -87.2516 main 34 9 P_____________ AL171995 29.9605 -87.2516 HU 102 940 3 21 22
1995271N19273 1995 73 NA GM OPAL 1995-10-04 22:00:00 TS 30.3000 -87.1000 100 942 hurdat_atl main 9 0 O_____________ hurdat_atl AL171995 30.3000 -87.1000 L HU 100 942 3 22 21
1995271N19273 1995 73 NA NA OPAL 1995-10-05 00:00:00 TS 31.0000 -86.8000 80 950 hurdat_atl main 0 0 O_____________ hurdat_atl AL171995 31.0000 -86.8000 HU 80 950 1 23 17
1995271N19273 1995 73 NA NA OPAL 1995-10-05 03:00:00 TS 32.0882 -86.4577 main 0 0 P_____________ AL171995 32.0882 -86.4577 HU 65 962 1 23 13
1995271N19273 1995 73 NA NA OPAL 1995-10-05 06:00:00 TS 33.2000 -86.2000 50 974 hurdat_atl main 0 0 O_____________ hurdat_atl AL171995 33.2000 -86.2000 TS 50 974 0 22 9
1995271N19273 1995 73 NA NA OPAL 1995-10-05 09:00:00 TS 34.2309 -86.0616 main 0 0 P_____________ AL171995 34.2309 -86.0616 TS 40 978 0 22 11
1995271N19273 1995 73 NA NA OPAL 1995-10-05 12:00:00 TS 35.4000 -85.7000 30 982 hurdat_atl main 0 0 O_____________ hurdat_atl AL171995 35.4000 -85.7000 TD 30 982 -1 30 23
1995271N19273 1995 73 NA NA OPAL 1995-10-05 15:00:00 TS 36.9684 -84.6642 main 0 0 P_____________ AL171995 36.9684 -84.6642 TD 35 984 0 36 30
1995271N19273 1995 73 NA NA OPAL 1995-10-05 18:00:00 ET 38.5000 -83.5000 40 986 hurdat_atl main 0 0 O_____________ hurdat_atl AL171995 38.5000 -83.5000 EX 40 986 -4 30 28
1995271N19273 1995 73 NA NA OPAL 1995-10-05 21:00:00 ET 39.6171 -82.8615 main 0 0 P_____________ AL171995 39.6171 -82.8615 EX 40 987 -4 22 25
1995271N19273 1995 73 NA NA OPAL 1995-10-06 00:00:00 ET 40.5000 -82.3000 40 989 hurdat_atl main 0 0 O_____________ hurdat_atl AL171995 40.5000 -82.3000 EX 40 989 -4 20 32
1995271N19273 1995 73 NA NA OPAL 1995-10-06 03:00:00 ET 41.3021 -81.4657 main 0 0 P_____________ AL171995 41.3021 -81.4657 EX 40 990 -4 20 42
1995271N19273 1995 73 NA NA OPAL 1995-10-06 06:00:00 ET 42.0000 -80.5000 40 991 hurdat_atl main 0 0 O_____________ hurdat_atl AL171995 42.0000 -80.5000 EX 40 991 -4 20 47
1995271N19273 1995 73 NA NA OPAL 1995-10-06 09:00:00 ET 42.6725 -79.4562 main 0 0 P_____________ AL171995 42.6725 -79.4562 EX 37 994 -4 20 50
1995271N19273 1995 73 NA NA OPAL 1995-10-06 12:00:00 ET 43.3000 -78.4000 35 997 hurdat_atl main 0 0 O_____________ hurdat_atl AL171995 43.3000 -78.4000 EX 35 997 -4 19 50
1995271N19273 1995 73 NA NA OPAL 1995-10-06 15:00:00 ET 43.9059 -77.4257 main 0 0 P_____________ AL171995 43.9059 -77.4257 EX 32 999 -4 18 49
1995271N19273 1995 73 NA NA OPAL 1995-10-06 18:00:00 ET 44.5000 -76.5000 30 1002 hurdat_atl main 0 O_____________ hurdat_atl AL171995 44.5000 -76.5000 EX 30 1002 -4 18 48

IBTrACS Databaseについて

本データベースは、米国NOAAが公開する1842年以降の世界の熱帯低気圧のベストトラックデータアーカイブInternational Best Track Archive for Climate Stewardship (IBTrACS)を、ウェブで閲覧しやすい形式に変換したものです。

最終更新日:2021-11-26